Time;durP1;ratioP1;P1;durP2;ratioP2;P2;SDS_P1;SDS_P2;PMS_P1;PMS_P2;Temp;Humidity;BMP_temperature;BMP_pressure;BME280_temperature;BME280_humidity;BME280_pressure;Samples;Min_cycle;Max_cycle;Signal;HPM_P1;HPM_P2
2023/02/08 00:00:07;;;;;;;;;;;0.50;99.90;;;;;;5035663;28;19916;-83
2023/02/08 00:02:32;;;;;;;;;;;0.50;99.90;;;;;;5052953;28;19908;-83
2023/02/08 00:04:58;;;;;;;;;;;0.50;99.90;;;;;;5035750;28;20370;-83
2023/02/08 00:07:24;;;;;;;;;;;0.40;99.90;;;;;;5035592;28;19956;-83
2023/02/08 00:09:49;;;;;;;;;;;0.30;99.90;;;;;;5035910;28;19909;-83
2023/02/08 00:12:15;;;;;;;;;;;0.40;99.90;;;;;;5035466;28;19978;-84
2023/02/08 00:14:40;;;;;;;;;;;0.30;99.90;;;;;;5035936;28;20003;-83
2023/02/08 00:17:06;;;;;;;;;;;0.30;99.90;;;;;;5035754;28;19954;-82
2023/02/08 00:19:31;;;;;;;;;;;0.30;99.90;;;;;;5036108;28;19909;-83
2023/02/08 00:21:57;;;;;;;;;;;0.30;99.90;;;;;;5053404;28;19909;-82
2023/02/08 00:24:22;;;;;;;;;;;0.30;99.90;;;;;;5036035;28;20366;-83
2023/02/08 00:26:48;;;;;;;;;;;0.40;99.90;;;;;;5035878;28;19909;-82
2023/02/08 00:29:13;;;;;;;;;;;0.40;99.90;;;;;;5054012;28;19912;-83
2023/02/08 00:31:39;;;;;;;;;;;0.40;99.90;;;;;;5035659;28;19956;-82
2023/02/08 00:34:04;;;;;;;;;;;0.40;99.90;;;;;;5036013;28;20006;-83
2023/02/08 00:36:30;;;;;;;;;;;0.40;99.90;;;;;;5035892;28;19909;-83
2023/02/08 00:38:55;;;;;;;;;;;0.40;99.90;;;;;;5036651;28;19909;-83
2023/02/08 00:41:21;;;;;;;;;;;0.40;99.90;;;;;;5036314;28;20344;-83
2023/02/08 00:43:46;;;;;;;;;;;0.40;99.90;;;;;;5036489;28;19909;-84
2023/02/08 00:46:12;;;;;;;;;;;0.40;99.90;;;;;;5054184;28;19983;-83
2023/02/08 00:48:37;;;;;;;;;;;0.40;99.90;;;;;;5036999;28;19963;-83
2023/02/08 00:51:05;;;;;;;;;;;0.40;99.90;;;;;;5036256;28;20514;-83
2023/02/08 00:53:33;;;;;;;;;;;0.40;99.90;;;;;;5036659;28;19916;-83
2023/02/08 00:55:59;;;;;;;;;;;0.40;99.90;;;;;;5036631;28;20343;-83
2023/02/08 00:58:24;;;;;;;;;;;0.40;99.90;;;;;;5037005;28;19967;-84
2023/02/08 01:00:51;;;;;;;;;;;0.30;99.90;;;;;;5036684;28;19908;-83
2023/02/08 01:03:17;;;;;;;;;;;0.30;99.90;;;;;;5036845;28;19909;-83
2023/02/08 01:05:42;;;;;;;;;;;0.30;99.90;;;;;;5037128;28;19909;-83
2023/02/08 01:08:08;;;;;;;;;;;0.30;99.90;;;;;;5036980;28;19913;-83
2023/02/08 01:10:33;;;;;;;;;;;0.30;99.90;;;;;;5055266;28;20566;-83
2023/02/08 01:13:00;;;;;;;;;;;0.30;99.90;;;;;;5036754;28;19913;-83
2023/02/08 01:15:26;;;;;;;;;;;0.20;99.90;;;;;;5035347;28;19916;-82
2023/02/08 01:17:55;;;;;;;;;;;0.20;99.90;;;;;;5036985;28;19913;-83
2023/02/08 01:20:21;;;;;;;;;;;0.20;99.90;;;;;;5055300;28;19940;-83
2023/02/08 01:22:46;;;;;;;;;;;0.20;99.90;;;;;;5037196;28;20297;-83
2023/02/08 01:25:12;;;;;;;;;;;0.20;99.90;;;;;;5038083;28;19909;-83
2023/02/08 01:27:37;;;;;;;;;;;0.20;99.90;;;;;;5038493;28;19909;-84
2023/02/08 01:30:03;;;;;;;;;;;0.20;99.90;;;;;;5038500;28;19909;-83
2023/02/08 01:32:28;;;;;;;;;;;0.20;99.90;;;;;;5038263;28;19934;-84
2023/02/08 01:34:54;;;;;;;;;;;0.20;99.90;;;;;;5050596;28;19935;-83
2023/02/08 01:37:19;;;;;;;;;;;0.10;99.90;;;;;;5056966;28;19952;-84
2023/02/08 01:39:45;;;;;;;;;;;0.10;99.90;;;;;;5061217;28;19909;-84
2023/02/08 01:42:14;;;;;;;;;;;0.00;99.90;;;;;;5069148;28;19916;-84
2023/02/08 01:44:58;;;;;;;;;;;0.00;99.90;;;;;;5072719;28;20327;-85
2023/02/08 01:47:24;;;;;;;;;;;0.00;99.90;;;;;;5087767;28;19921;-84
2023/02/08 01:49:50;;;;;;;;;;;-0.10;99.90;;;;;;5071120;28;19952;-84
2023/02/08 01:52:20;;;;;;;;;;;-0.10;99.90;;;;;;5075658;28;19943;-84
2023/02/08 01:54:52;;;;;;;;;;;-0.10;99.90;;;;;;5068892;28;19939;-84
2023/02/08 01:57:19;;;;;;;;;;;-0.10;99.90;;;;;;5068764;28;20014;-84
2023/02/08 01:59:47;;;;;;;;;;;-0.20;99.90;;;;;;5050460;28;19913;-84
2023/02/08 02:02:14;;;;;;;;;;;-0.20;99.90;;;;;;5049906;28;19931;-84
2023/02/08 02:04:40;;;;;;;;;;;-0.20;99.90;;;;;;5049701;28;19909;-84
2023/02/08 02:07:05;;;;;;;;;;;-0.30;99.90;;;;;;5049839;28;20008;-83
2023/02/08 02:09:41;;;;;;;;;;;-0.30;99.90;;;;;;5067393;28;19962;-84
2023/02/08 02:12:07;;;;;;;;;;;-0.30;99.90;;;;;;5067132;28;19975;-84
2023/02/08 02:14:33;;;;;;;;;;;-0.30;99.90;;;;;;5049255;28;19916;-84
2023/02/08 02:16:59;;;;;;;;;;;-0.30;99.90;;;;;;5067319;28;19959;-85
2023/02/08 02:19:43;;;;;;;;;;;-0.30;99.90;;;;;;5048342;28;20290;-84
2023/02/08 02:22:12;;;;;;;;;;;-0.40;99.90;;;;;;5067330;28;19909;-85
2023/02/08 02:24:47;;;;;;;;;;;-0.40;99.90;;;;;;5048737;28;19951;-84
2023/02/08 02:27:19;;;;;;;;;;;-0.30;99.90;;;;;;5048404;28;19908;-83
2023/02/08 02:30:03;;;;;;;;;;;-0.40;99.90;;;;;;5048479;28;19916;-83
2023/02/08 02:32:38;;;;;;;;;;;-0.40;99.90;;;;;;5046370;28;19920;-84
2023/02/08 02:35:03;;;;;;;;;;;-0.40;99.90;;;;;;5046926;28;19915;-84
2023/02/08 02:37:48;;;;;;;;;;;-0.40;99.90;;;;;;5065539;28;19908;-84
2023/02/08 02:40:24;;;;;;;;;;;-0.50;99.90;;;;;;5046313;28;19920;-84
2023/02/08 02:45:52;;;;;;;;;;;-0.50;99.90;;;;;;5064400;28;19951;-85
2023/02/08 02:48:21;;;;;;;;;;;-0.50;99.90;;;;;;5046370;28;19909;-84
2023/02/08 02:50:49;;;;;;;;;;;-0.50;99.90;;;;;;5045874;28;19909;-83
2023/02/08 02:53:27;;;;;;;;;;;-0.50;99.90;;;;;;5045375;28;19970;-85
2023/02/08 02:55:59;;;;;;;;;;;-0.50;99.90;;;;;;5045573;28;19916;-83
2023/02/08 02:58:26;;;;;;;;;;;-0.50;99.90;;;;;;5045271;28;19944;-82
2023/02/08 03:00:55;;;;;;;;;;;-0.60;99.90;;;;;;5044539;28;19932;-84
2023/02/08 03:03:23;;;;;;;;;;;-0.60;99.90;;;;;;5044750;28;19908;-84
2023/02/08 03:05:49;;;;;;;;;;;-0.60;99.90;;;;;;5045249;28;20263;-84
2023/02/08 03:08:21;;;;;;;;;;;-0.60;99.90;;;;;;5063232;28;19909;-85
2023/02/08 03:11:04;;;;;;;;;;;-0.60;99.90;;;;;;5044231;28;19909;-83
2023/02/08 03:13:30;;;;;;;;;;;-0.60;99.90;;;;;;5062865;28;19913;-84
2023/02/08 03:15:55;;;;;;;;;;;-0.60;99.90;;;;;;5044481;28;19916;-84
2023/02/08 03:18:20;;;;;;;;;;;-0.60;99.90;;;;;;5044074;28;20404;-84
2023/02/08 03:20:52;;;;;;;;;;;-0.70;99.90;;;;;;5044948;28;20337;-83
2023/02/08 03:23:24;;;;;;;;;;;-0.70;99.90;;;;;;5044038;28;19909;-84
2023/02/08 03:25:54;;;;;;;;;;;-0.70;99.90;;;;;;5044169;28;19909;-83
2023/02/08 03:28:20;;;;;;;;;;;-0.60;99.90;;;;;;5043633;28;19909;-84
2023/02/08 03:30:47;;;;;;;;;;;-0.60;99.90;;;;;;5043454;28;19915;-85
2023/02/08 03:33:33;;;;;;;;;;;-0.60;99.90;;;;;;5042985;28;19966;-83
2023/02/08 03:36:03;;;;;;;;;;;-0.60;99.90;;;;;;5043620;28;19939;-84
2023/02/08 03:38:35;;;;;;;;;;;-0.60;99.90;;;;;;5043005;28;19909;-84
2023/02/08 03:41:03;;;;;;;;;;;-0.60;99.90;;;;;;5043244;28;19913;-83
2023/02/08 03:43:30;;;;;;;;;;;-0.60;99.90;;;;;;5043009;28;19909;-83
2023/02/08 03:46:00;;;;;;;;;;;-0.60;99.90;;;;;;5061048;28;19917;-84
2023/02/08 03:48:27;;;;;;;;;;;-0.70;99.90;;;;;;5042458;28;19916;-84
2023/02/08 03:50:54;;;;;;;;;;;-0.70;99.90;;;;;;5042570;28;19909;-83
2023/02/08 03:53:21;;;;;;;;;;;-0.70;99.90;;;;;;5042741;28;19913;-85
2023/02/08 03:55:48;;;;;;;;;;;-0.70;99.90;;;;;;5042161;28;19916;-85
2023/02/08 03:58:20;;;;;;;;;;;-0.70;99.90;;;;;;5041921;28;19913;-84
2023/02/08 04:00:51;;;;;;;;;;;-0.60;99.90;;;;;;5042288;28;19909;-84
2023/02/08 04:03:23;;;;;;;;;;;-0.60;99.90;;;;;;5041652;28;19972;-83
2023/02/08 04:05:48;;;;;;;;;;;-0.60;99.90;;;;;;5042641;28;19916;-83
2023/02/08 04:08:14;;;;;;;;;;;-0.60;99.90;;;;;;5042478;28;19909;-84
2023/02/08 04:10:39;;;;;;;;;;;-0.60;99.90;;;;;;5042270;28;19909;-84
2023/02/08 04:13:05;;;;;;;;;;;-0.50;99.90;;;;;;5040360;28;19912;-83
2023/02/08 04:15:31;;;;;;;;;;;-0.50;99.90;;;;;;5040767;28;20019;-85
2023/02/08 04:17:57;;;;;;;;;;;-0.50;99.90;;;;;;5041162;28;19909;-84
2023/02/08 04:20:22;;;;;;;;;;;-0.50;99.90;;;;;;5040694;28;19941;-83
2023/02/08 04:22:48;;;;;;;;;;;-0.50;99.90;;;;;;5040641;28;19909;-83
2023/02/08 04:25:17;;;;;;;;;;;-0.50;99.90;;;;;;5041721;28;20385;-83
2023/02/08 04:27:43;;;;;;;;;;;-0.50;99.90;;;;;;5041544;28;20397;-83
2023/02/08 04:30:08;;;;;;;;;;;-0.50;99.90;;;;;;5040280;28;19909;-83
2023/02/08 04:32:34;;;;;;;;;;;-0.40;99.90;;;;;;5040246;28;20058;-84
2023/02/08 04:34:59;;;;;;;;;;;-0.40;99.90;;;;;;5059004;28;20389;-83
2023/02/08 04:37:25;;;;;;;;;;;-0.40;99.90;;;;;;5058978;28;19909;-83
2023/02/08 04:39:50;;;;;;;;;;;-0.40;99.90;;;;;;5041146;28;19908;-85
2023/02/08 04:42:16;;;;;;;;;;;-0.40;99.90;;;;;;5039948;28;19908;-84
2023/02/08 04:44:41;;;;;;;;;;;-0.40;99.90;;;;;;5041390;28;19908;-83
2023/02/08 04:47:07;;;;;;;;;;;-0.40;99.90;;;;;;5036869;22;20305;-84
2023/02/08 04:49:32;;;;;;;;;;;-0.50;99.90;;;;;;5014184;28;20354;-81
2023/02/08 04:51:58;;;;;;;;;;;-0.50;99.90;;;;;;5014922;28;19921;-81
2023/02/08 04:54:24;;;;;;;;;;;-0.40;99.90;;;;;;5033256;28;20366;-82
2023/02/08 04:56:49;;;;;;;;;;;-0.40;99.90;;;;;;5015228;28;20007;-83
2023/02/08 04:59:15;;;;;;;;;;;-0.40;99.90;;;;;;5015435;28;20294;-81
2023/02/08 05:01:40;;;;;;;;;;;-0.50;99.90;;;;;;5014968;28;19913;-81
2023/02/08 05:04:06;;;;;;;;;;;-0.50;99.90;;;;;;5015361;28;19916;-83
2023/02/08 05:06:32;;;;;;;;;;;-0.40;99.90;;;;;;5015468;28;20000;-82
2023/02/08 05:08:57;;;;;;;;;;;-0.40;99.90;;;;;;5015891;28;19909;-82
2023/02/08 05:11:24;;;;;;;;;;;-0.50;99.90;;;;;;5015034;28;19917;-82
2023/02/08 05:13:50;;;;;;;;;;;-0.50;99.90;;;;;;5015911;28;19937;-82
2023/02/08 05:16:15;;;;;;;;;;;-0.50;99.90;;;;;;5018965;28;20382;-82
2023/02/08 05:18:41;;;;;;;;;;;-0.50;99.90;;;;;;5018976;28;19909;-82
2023/02/08 05:21:06;;;;;;;;;;;-0.50;99.90;;;;;;5018587;28;19992;-81
2023/02/08 05:23:32;;;;;;;;;;;-0.50;99.90;;;;;;5019470;28;19913;-82
2023/02/08 05:25:58;;;;;;;;;;;-0.50;99.90;;;;;;5019435;28;20275;-82
2023/02/08 05:28:24;;;;;;;;;;;-0.60;99.90;;;;;;5019094;28;19909;-81
2023/02/08 05:30:49;;;;;;;;;;;-0.60;99.90;;;;;;5019249;28;19916;-82
2023/02/08 05:33:15;;;;;;;;;;;-0.60;99.90;;;;;;5018477;28;19913;-80
2023/02/08 05:35:40;;;;;;;;;;;-0.70;99.90;;;;;;5036379;28;20071;-81
2023/02/08 05:38:06;;;;;;;;;;;-0.70;99.90;;;;;;5018641;28;19909;-82
2023/02/08 05:40:32;;;;;;;;;;;-0.80;99.90;;;;;;5018579;28;20255;-81
2023/02/08 05:42:57;;;;;;;;;;;-0.70;99.90;;;;;;5018347;28;19932;-81
2023/02/08 05:45:23;;;;;;;;;;;-0.70;99.90;;;;;;5036440;28;20356;-82
2023/02/08 05:47:48;;;;;;;;;;;-0.70;99.90;;;;;;5018471;28;19917;-81
2023/02/08 05:50:14;;;;;;;;;;;-0.70;99.90;;;;;;5018530;28;19909;-81
2023/02/08 05:52:39;;;;;;;;;;;-0.70;99.90;;;;;;5036211;28;20314;-80
2023/02/08 05:55:05;;;;;;;;;;;-0.70;99.90;;;;;;5036235;28;19959;-82
2023/02/08 05:57:31;;;;;;;;;;;-0.70;99.90;;;;;;5018632;28;19909;-82
2023/02/08 05:59:57;;;;;;;;;;;-0.70;99.90;;;;;;5018275;28;19963;-82
2023/02/08 06:02:22;;;;;;;;;;;-0.70;99.90;;;;;;5036001;28;20432;-81
2023/02/08 06:04:48;;;;;;;;;;;-0.70;99.90;;;;;;5036142;28;19909;-81
2023/02/08 06:07:14;;;;;;;;;;;-0.70;99.90;;;;;;5036001;28;19916;-82
2023/02/08 06:09:39;;;;;;;;;;;-0.70;99.90;;;;;;5036185;28;20040;-81
2023/02/08 06:12:06;;;;;;;;;;;-0.70;99.90;;;;;;5017803;28;19913;-81
2023/02/08 06:14:31;;;;;;;;;;;-0.70;99.90;;;;;;5018033;28;19909;-79
2023/02/08 06:16:57;;;;;;;;;;;-0.70;99.90;;;;;;5035299;28;20270;-80
2023/02/08 06:19:22;;;;;;;;;;;-0.70;99.90;;;;;;5035504;28;19917;-80
2023/02/08 06:21:47;;;;;;;;;;;-0.70;99.90;;;;;;5016781;28;19909;-79
2023/02/08 06:24:15;;;;;;;;;;;-0.60;99.90;;;;;;5035397;28;19917;-79
2023/02/08 06:26:41;;;;;;;;;;;-0.60;99.90;;;;;;5017551;28;20286;-80
2023/02/08 06:29:06;;;;;;;;;;;-0.60;99.90;;;;;;5035262;28;19909;-79
2023/02/08 06:31:32;;;;;;;;;;;-0.60;99.90;;;;;;5034812;28;20007;-79
2023/02/08 06:33:57;;;;;;;;;;;-0.60;99.90;;;;;;5035278;28;19963;-79
2023/02/08 06:36:23;;;;;;;;;;;-0.70;99.90;;;;;;5035487;28;19976;-81
2023/02/08 06:38:48;;;;;;;;;;;-0.70;99.90;;;;;;5017481;28;19929;-79
2023/02/08 06:41:14;;;;;;;;;;;-0.70;99.90;;;;;;5017079;28;19920;-79
2023/02/08 06:43:39;;;;;;;;;;;-0.70;99.90;;;;;;5035187;28;20367;-79
2023/02/08 06:46:07;;;;;;;;;;;-0.70;99.90;;;;;;5017399;28;20011;-80
2023/02/08 06:48:33;;;;;;;;;;;-0.70;99.90;;;;;;5035318;28;19913;-79
2023/02/08 06:51:00;;;;;;;;;;;-0.70;99.90;;;;;;5017195;28;20316;-80
2023/02/08 06:53:26;;;;;;;;;;;-0.70;99.90;;;;;;5018896;28;19979;-79
2023/02/08 06:55:51;;;;;;;;;;;-0.70;99.90;;;;;;5017656;28;19909;-80
2023/02/08 06:58:17;;;;;;;;;;;-0.70;99.90;;;;;;5034758;28;19909;-79
2023/02/08 07:00:46;;;;;;;;;;;-0.80;99.90;;;;;;5034603;28;20370;-79
2023/02/08 07:03:12;;;;;;;;;;;-0.80;99.90;;;;;;5034393;28;19909;-79
2023/02/08 07:05:38;;;;;;;;;;;-0.80;99.90;;;;;;5016661;28;19909;-80
2023/02/08 07:08:04;;;;;;;;;;;-0.80;99.90;;;;;;5016652;28;19916;-79
2023/02/08 07:10:29;;;;;;;;;;;-0.80;99.90;;;;;;5020998;28;20367;-79
2023/02/08 07:12:55;;;;;;;;;;;-0.90;99.90;;;;;;5014201;28;20289;-79
2023/02/08 07:15:20;;;;;;;;;;;-0.90;99.90;;;;;;5014740;28;20264;-79
2023/02/08 07:17:46;;;;;;;;;;;-0.90;99.90;;;;;;5014696;28;19909;-79
2023/02/08 07:20:11;;;;;;;;;;;-0.90;99.90;;;;;;5014716;28;19916;-79
2023/02/08 07:22:37;;;;;;;;;;;-0.80;99.90;;;;;;5013127;28;20382;-79
2023/02/08 07:25:03;;;;;;;;;;;-0.80;99.90;;;;;;4997133;28;19968;-79
2023/02/08 07:27:29;;;;;;;;;;;-0.80;99.90;;;;;;4996798;28;19952;-79
2023/02/08 07:29:54;;;;;;;;;;;-0.80;99.90;;;;;;4996719;28;20341;-80
2023/02/08 07:32:20;;;;;;;;;;;-0.80;99.90;;;;;;4995635;28;19913;-79
2023/02/08 07:34:45;;;;;;;;;;;-0.80;99.90;;;;;;5014529;28;19910;-79
2023/02/08 07:37:11;;;;;;;;;;;-0.80;99.90;;;;;;4996415;28;19960;-78
2023/02/08 07:39:36;;;;;;;;;;;-0.70;99.90;;;;;;4996696;28;19968;-81
2023/02/08 07:42:02;;;;;;;;;;;-0.70;99.90;;;;;;5014513;28;19914;-85
2023/02/08 07:44:27;;;;;;;;;;;-0.70;99.90;;;;;;5028417;28;19912;-82
2023/02/08 07:46:53;;;;;;;;;;;-0.70;99.90;;;;;;5052770;28;20378;-80
2023/02/08 07:49:18;;;;;;;;;;;-0.70;99.90;;;;;;5052709;28;20312;-78
2023/02/08 07:51:44;;;;;;;;;;;-0.70;99.90;;;;;;5052462;28;20369;-78
2023/02/08 07:54:09;;;;;;;;;;;-0.60;99.90;;;;;;5052701;28;19913;-78
2023/02/08 07:56:35;;;;;;;;;;;-0.60;99.90;;;;;;5052494;28;20281;-80
2023/02/08 07:59:00;;;;;;;;;;;-0.60;99.90;;;;;;5015730;28;19999;-79
2023/02/08 08:01:26;;;;;;;;;;;-0.50;99.90;;;;;;5033000;28;19913;-78
2023/02/08 08:03:51;;;;;;;;;;;-0.40;99.90;;;;;;5032747;28;20430;-79
2023/02/08 08:06:21;;;;;;;;;;;-0.30;99.90;;;;;;5015398;28;19909;-78
2023/02/08 08:08:46;;;;;;;;;;;-0.20;99.90;;;;;;5032904;28;19909;-78
2023/02/08 08:11:15;;;;;;;;;;;-0.10;99.90;;;;;;5032592;28;19986;-78
2023/02/08 08:13:41;;;;;;;;;;;0.00;99.90;;;;;;5015260;28;19915;-78
2023/02/08 08:16:06;;;;;;;;;;;0.10;99.90;;;;;;5032797;28;20445;-78
2023/02/08 08:18:32;;;;;;;;;;;0.10;99.90;;;;;;5032938;28;19920;-78
2023/02/08 08:20:57;;;;;;;;;;;0.30;99.90;;;;;;5032651;28;19910;-79
2023/02/08 08:23:23;;;;;;;;;;;0.40;99.90;;;;;;5033240;28;20273;-78
2023/02/08 08:25:49;;;;;;;;;;;0.40;99.90;;;;;;5032685;28;19913;-79
2023/02/08 08:28:14;;;;;;;;;;;0.50;99.90;;;;;;5032737;28;19909;-78
2023/02/08 08:30:43;;;;;;;;;;;0.70;99.90;;;;;;5015011;28;19910;-79
2023/02/08 08:33:09;;;;;;;;;;;0.80;99.90;;;;;;5032583;28;19971;-78
2023/02/08 08:35:34;;;;;;;;;;;0.90;99.90;;;;;;5033020;28;19952;-78
2023/02/08 08:38:00;;;;;;;;;;;1.00;99.90;;;;;;5032534;28;19913;-79
2023/02/08 08:40:25;;;;;;;;;;;1.10;99.90;;;;;;5032752;28;19915;-79
2023/02/08 08:42:50;;;;;;;;;;;1.20;99.90;;;;;;5014620;28;20286;-79
2023/02/08 08:45:16;;;;;;;;;;;1.30;99.90;;;;;;5014895;28;19962;-80
2023/02/08 08:47:41;;;;;;;;;;;1.50;99.90;;;;;;5032737;28;19928;-78
2023/02/08 08:50:07;;;;;;;;;;;1.60;99.90;;;;;;5032551;28;19910;-79
2023/02/08 08:52:33;;;;;;;;;;;1.80;99.90;;;;;;5032099;28;19913;-79
2023/02/08 08:54:58;;;;;;;;;;;1.80;99.90;;;;;;5014900;28;19909;-79
2023/02/08 08:57:23;;;;;;;;;;;1.90;99.90;;;;;;5032501;28;19960;-79
2023/02/08 08:59:49;;;;;;;;;;;2.10;99.90;;;;;;5032544;28;19909;-79
2023/02/08 09:02:14;;;;;;;;;;;2.10;99.90;;;;;;5032341;28;20007;-78
2023/02/08 09:04:40;;;;;;;;;;;2.20;99.90;;;;;;5032554;28;20326;-78
2023/02/08 09:07:06;;;;;;;;;;;2.30;99.90;;;;;;5014954;28;19944;-78
2023/02/08 09:09:32;;;;;;;;;;;2.40;99.90;;;;;;5014739;28;20366;-79
2023/02/08 09:11:57;;;;;;;;;;;2.50;99.90;;;;;;5032243;28;19917;-79
2023/02/08 09:14:22;;;;;;;;;;;2.60;99.90;;;;;;5032572;28;19945;-79
2023/02/08 09:16:48;;;;;;;;;;;2.70;99.90;;;;;;5032249;28;19909;-78
2023/02/08 09:19:15;;;;;;;;;;;2.80;99.90;;;;;;5032347;28;19917;-78
2023/02/08 09:21:40;;;;;;;;;;;2.90;99.90;;;;;;5032123;28;19963;-78
2023/02/08 09:24:06;;;;;;;;;;;3.00;99.90;;;;;;5032548;28;20330;-78
2023/02/08 09:26:31;;;;;;;;;;;3.10;99.90;;;;;;5032221;28;19940;-79
2023/02/08 09:28:57;;;;;;;;;;;3.20;99.90;;;;;;5032214;28;19909;-79
2023/02/08 09:31:24;;;;;;;;;;;3.30;99.90;;;;;;5031866;28;19958;-80
2023/02/08 09:33:50;;;;;;;;;;;3.30;99.90;;;;;;5014409;28;19935;-79
2023/02/08 09:36:16;;;;;;;;;;;3.40;99.90;;;;;;5014267;28;20263;-79
2023/02/08 09:38:42;;;;;;;;;;;3.50;99.90;;;;;;5032190;28;19916;-79
2023/02/08 09:41:14;;;;;;;;;;;3.50;99.90;;;;;;5014154;28;19913;-80
2023/02/08 09:43:48;;;;;;;;;;;3.60;99.90;;;;;;5032146;28;19909;-78
2023/02/08 09:46:13;;;;;;;;;;;3.70;99.90;;;;;;5031958;28;19939;-78
2023/02/08 09:48:39;;;;;;;;;;;3.80;99.90;;;;;;5014487;28;19996;-78
2023/02/08 09:51:12;;;;;;;;;;;3.80;99.90;;;;;;5031868;28;19941;-79
2023/02/08 09:53:43;;;;;;;;;;;3.90;99.90;;;;;;5032065;28;20468;-78
2023/02/08 09:56:11;;;;;;;;;;;4.00;96.90;;;;;;5033860;28;19909;-79
2023/02/08 09:58:41;;;;;;;;;;;4.00;97.20;;;;;;5035690;28;19980;-79
2023/02/08 10:01:11;;;;;;;;;;;4.10;96.80;;;;;;5035383;28;19963;-79
2023/02/08 10:03:37;;;;;;;;;;;4.10;94.70;;;;;;5035557;28;19909;-79
2023/02/08 10:06:04;;;;;;;;;;;4.10;94.70;;;;;;5035366;28;20008;-79
2023/02/08 10:08:30;;;;;;;;;;;4.20;93.60;;;;;;5035393;28;20290;-78
2023/02/08 10:11:04;;;;;;;;;;;4.30;92.80;;;;;;5035291;28;19909;-79
2023/02/08 10:13:39;;;;;;;;;;;4.40;92.50;;;;;;5017866;28;19920;-79
2023/02/08 10:16:23;;;;;;;;;;;4.40;90.80;;;;;;5035504;28;20379;-80
2023/02/08 10:18:53;;;;;;;;;;;4.50;91.20;;;;;;5017703;28;19909;-79
2023/02/08 10:21:18;;;;;;;;;;;4.60;90.10;;;;;;5017484;28;19909;-78
2023/02/08 10:23:49;;;;;;;;;;;4.60;88.80;;;;;;5035321;28;20007;-79
2023/02/08 10:26:23;;;;;;;;;;;4.70;89.30;;;;;;5035380;28;20012;-79
2023/02/08 10:29:08;;;;;;;;;;;4.80;85.90;;;;;;5017723;28;20367;-79
2023/02/08 10:31:53;;;;;;;;;;;4.90;86.10;;;;;;5034922;28;19913;-79
2023/02/08 10:34:22;;;;;;;;;;;5.00;85.10;;;;;;5035494;28;19963;-79
2023/02/08 10:36:47;;;;;;;;;;;5.00;82.50;;;;;;5035399;28;19963;-79
2023/02/08 10:39:14;;;;;;;;;;;5.10;85.50;;;;;;5017286;28;19909;-79
2023/02/08 10:41:40;;;;;;;;;;;5.20;82.50;;;;;;5017986;28;19971;-81
2023/02/08 10:44:35;;;;;;;;;;;5.20;80.20;;;;;;5036378;28;20366;-80
2023/02/08 10:55:12;;;;;;;;;;;5.50;75.50;;;;;;5054731;28;19925;-80
2023/02/08 10:58:06;;;;;;;;;;;5.60;77.40;;;;;;5054953;28;19916;-80
2023/02/08 11:03:33;;;;;;;;;;;5.80;75.90;;;;;;5017755;28;19917;-78
2023/02/08 11:06:14;;;;;;;;;;;6.10;75.90;;;;;;5030708;28;19909;-78
2023/02/08 11:08:55;;;;;;;;;;;6.20;72.40;;;;;;5023166;28;19913;-78
2023/02/08 11:11:37;;;;;;;;;;;6.40;70.60;;;;;;5039271;28;19909;-78
2023/02/08 11:14:38;;;;;;;;;;;6.60;67.40;;;;;;5057111;28;19958;-77
2023/02/08 11:17:24;;;;;;;;;;;6.70;67.80;;;;;;4962355;28;19968;-78
2023/02/08 11:19:55;;;;;;;;;;;6.80;66.40;;;;;;5023262;28;19913;-79
2023/02/08 11:22:33;;;;;;;;;;;7.00;64.50;;;;;;5036810;28;19909;-78
2023/02/08 11:28:40;;;;;;;;;;;10.10;58.90;;;;;;5036511;28;19909;-78
2023/02/08 11:31:40;;;;;;;;;;;14.20;50.30;;;;;;5018296;28;19910;-78
2023/02/08 11:34:27;;;;;;;;;;;;;;;;;;;;;
2023/02/08 11:37:09;;;;;;;;;;;19.90;37.00;;;;;;5043990;28;20271;-79
2023/02/08 11:40:09;;;;;;;;;;;21.90;32.20;;;;;;5036378;28;19944;-79
2023/02/08 11:43:02;;;;;;;;;;;23.00;30.00;;;;;;5015775;28;19913;-80
2023/02/08 11:46:08;;;;;;;;;;;24.10;28.60;;;;;;5043252;28;20337;-80
2023/02/08 11:49:33;;;;;;;;;;;;;;;;;;;;;
2023/02/08 11:52:40;;;;;;;;;;;;;;;;;;;;;
2023/02/08 11:55:31;;;;;;;;;;;25.50;25.30;;;;;;5035227;28;19917;-79
2023/02/08 12:01:53;;;;;;;;;;;26.50;1.00;;;;;;4993890;28;19916;-80
2023/02/08 12:04:27;;;;;;;;;;;26.40;1.00;;;;;;4985256;28;19922;-80
2023/02/08 12:07:11;;;;;;;;;;;26.90;1.00;;;;;;5002314;23;20303;-79
2023/02/08 12:09:48;;;;;;;;;;;27.10;1.00;;;;;;5025201;28;19914;-78
2023/02/08 12:12:32;;;;;;;;;;;26.70;1.00;;;;;;5022727;28;20517;-78
2023/02/08 12:15:07;;;;;;;;;;;26.60;1.00;;;;;;5034010;28;19963;-79
2023/02/08 12:17:33;;;;;;;;;;;26.60;1.00;;;;;;5047109;28;19959;-78
2023/02/08 12:20:04;;;;;;;;;;;27.30;1.00;;;;;;5054136;28;20366;-78
2023/02/08 12:22:30;;;;;;;;;;;28.00;1.00;;;;;;5055041;28;20018;-79
2023/02/08 12:25:15;;;;;;;;;;;28.10;1.00;;;;;;5038800;28;19915;-78
2023/02/08 12:27:44;;;;;;;;;;;27.20;1.00;;;;;;5042437;28;19946;-78
2023/02/08 12:30:21;;;;;;;;;;;26.30;1.00;;;;;;5035356;28;19913;-79
2023/02/08 12:32:52;;;;;;;;;;;26.00;1.00;;;;;;5014845;28;19997;-79
2023/02/08 12:35:24;;;;;;;;;;;25.90;1.00;;;;;;5004151;28;19956;-78
2023/02/08 12:40:56;;;;;;;;;;;24.40;1.00;;;;;;5014407;28;20370;-79
2023/02/08 12:43:35;;;;;;;;;;;24.20;1.00;;;;;;5013736;28;19918;-79
2023/02/08 12:46:01;;;;;;;;;;;23.40;1.00;;;;;;5014310;28;19916;-79
2023/02/08 12:48:45;;;;;;;;;;;22.90;1.00;;;;;;4996429;28;19949;-79
2023/02/08 12:51:19;;;;;;;;;;;21.80;1.00;;;;;;4996554;28;19909;-79
2023/02/08 12:53:51;;;;;;;;;;;19.50;99.90;;;;;;5014967;28;19910;-79
2023/02/08 12:56:19;;;;;;;;;;;18.00;99.90;;;;;;5014283;28;19992;-79
2023/02/08 12:58:46;;;;;;;;;;;16.50;99.90;;;;;;5015125;28;19910;-79
2023/02/08 13:01:20;;;;;;;;;;;15.60;99.90;;;;;;4997198;28;19914;-78
2023/02/08 13:03:53;;;;;;;;;;;16.10;99.90;;;;;;5014729;28;19914;-78
2023/02/08 13:06:22;;;;;;;;;;;17.70;99.90;;;;;;5015177;28;19909;-78
2023/02/08 13:09:00;;;;;;;;;;;17.80;99.90;;;;;;5014569;28;19925;-78
2023/02/08 13:11:38;;;;;;;;;;;17.70;99.90;;;;;;5019102;28;19909;-79
2023/02/08 13:14:06;;;;;;;;;;;18.00;99.90;;;;;;5033721;28;19910;-79
2023/02/08 13:16:36;;;;;;;;;;;19.20;99.90;;;;;;5015884;28;19909;-79
2023/02/08 13:19:13;;;;;;;;;;;21.00;99.90;;;;;;5014613;28;19910;-80
2023/02/08 13:21:42;;;;;;;;;;;22.60;1.00;;;;;;5014419;28;19909;-81
2023/02/08 13:24:26;;;;;;;;;;;23.60;1.00;;;;;;5032333;28;19910;-80
2023/02/08 13:26:52;;;;;;;;;;;24.00;1.00;;;;;;4998532;28;19916;-80
2023/02/08 13:29:18;;;;;;;;;;;23.10;1.00;;;;;;5014854;28;19995;-80
2023/02/08 13:31:48;;;;;;;;;;;22.30;1.00;;;;;;5016946;28;20009;-80
2023/02/08 13:34:17;;;;;;;;;;;21.90;1.00;;;;;;5036080;28;19919;-80
2023/02/08 13:36:50;;;;;;;;;;;21.50;1.00;;;;;;5018139;28;19909;-80
2023/02/08 13:39:29;;;;;;;;;;;20.80;99.90;;;;;;5036116;28;19920;-80
2023/02/08 13:41:55;;;;;;;;;;;19.80;99.90;;;;;;5035747;28;19956;-80
2023/02/08 13:44:26;;;;;;;;;;;19.50;99.90;;;;;;5018132;28;19973;-80
2023/02/08 13:46:51;;;;;;;;;;;19.20;99.90;;;;;;5018363;28;20289;-80
2023/02/08 13:49:55;;;;;;;;;;;18.70;99.90;;;;;;5036422;28;20032;-80
2023/02/08 13:52:33;;;;;;;;;;;18.40;99.90;;;;;;4938650;29;19918;-81
2023/02/08 13:55:16;;;;;;;;;;;17.70;99.90;;;;;;4939090;29;19911;-80
2023/02/08 13:57:49;;;;;;;;;;;16.80;99.90;;;;;;4991138;28;19910;-80
2023/02/08 14:00:21;;;;;;;;;;;15.80;99.90;;;;;;5014515;28;19909;-81
2023/02/08 14:02:57;;;;;;;;;;;15.10;99.90;;;;;;5033468;28;19913;-80
2023/02/08 14:05:37;;;;;;;;;;;14.50;99.90;;;;;;5025341;28;19917;-80
2023/02/08 14:08:04;;;;;;;;;;;13.80;99.90;;;;;;5016962;28;19921;-79
2023/02/08 14:10:35;;;;;;;;;;;13.20;99.90;;;;;;5017286;28;19920;-79
2023/02/08 14:13:15;;;;;;;;;;;12.80;99.90;;;;;;5035018;28;19909;-79
2023/02/08 14:15:42;;;;;;;;;;;12.40;99.90;;;;;;5034939;28;19909;-79
2023/02/08 14:18:27;;;;;;;;;;;12.20;99.90;;;;;;5035067;28;19916;-80
2023/02/08 14:20:59;;;;;;;;;;;12.00;99.90;;;;;;5016602;28;19916;-79
2023/02/08 14:23:26;;;;;;;;;;;11.90;99.90;;;;;;5035161;28;20667;-79
2023/02/08 14:25:53;;;;;;;;;;;11.90;99.90;;;;;;5035086;28;19913;-78
2023/02/08 14:28:30;;;;;;;;;;;11.80;99.90;;;;;;5034803;28;19909;-79
2023/02/08 14:30:57;;;;;;;;;;;11.70;99.90;;;;;;5017291;28;19909;-79
2023/02/08 14:33:28;;;;;;;;;;;11.70;99.90;;;;;;5017182;28;19909;-78
2023/02/08 14:35:55;;;;;;;;;;;11.70;99.90;;;;;;5035126;28;19921;-78
2023/02/08 14:38:21;;;;;;;;;;;11.80;99.90;;;;;;5035421;28;19916;-79
2023/02/08 14:40:51;;;;;;;;;;;11.80;99.90;;;;;;5016984;28;19909;-79
2023/02/08 14:43:20;;;;;;;;;;;11.70;99.90;;;;;;5035016;28;19913;-77
2023/02/08 14:45:49;;;;;;;;;;;11.70;99.90;;;;;;5034564;28;20313;-79
2023/02/08 14:48:27;;;;;;;;;;;11.70;99.90;;;;;;5016801;28;19962;-79
2023/02/08 14:50:52;;;;;;;;;;;11.60;99.90;;;;;;5035173;28;19909;-79
2023/02/08 14:53:26;;;;;;;;;;;11.50;99.90;;;;;;5016905;28;19915;-78
2023/02/08 14:56:11;;;;;;;;;;;11.40;99.90;;;;;;5034944;28;19913;-79
2023/02/08 14:58:39;;;;;;;;;;;11.20;99.90;;;;;;5006636;28;19917;-79
2023/02/08 15:01:06;;;;;;;;;;;11.10;99.90;;;;;;5034688;28;19910;-78
2023/02/08 15:03:33;;;;;;;;;;;11.10;99.90;;;;;;5035093;28;19920;-78